طرابلس, ليبيا

10:15 AM EET on êèوêè 30, 2015 (GMT +0200)
Mitiga | | Change Station
CLOSE
Current Station
Airport
Location: Tripoli Mitiga,
Elevation: 36 ft
Nearby Weather Stations

Elev 36 ft 32.89 °N, 13.28 °E | Updated 1 hour ago

Partly Cloudy
غائم جزئياً
77 °F
Feels Like 77 °F
N
9
ريح متغير ريح from شرق

هذا اليوم
High -- | Low -- °F
--% Chance of Precip.
Yesterday
High -- | Low -- °F
Precip. -- في
6:02 AM 8:19 PM
الأحدب الأول, 96% visible
الضغط 30.09 في
وضوح الرؤية 5.0 أميال
سحابات Few 2500 ft
نقطة الندى 64 °F
الرطوبة 65%
Rainfall 0.00 في
عمق الثلج Not available.
الأشعة فوق البنفسجية 3 out of 12
Pollen Not available.
جودة الهواء Not available.
Flu Activity Not available.
METAR HLLM 300650Z 08008KT 8000 FEW025 25/18 Q1019

More Conditions Fewer Conditions

الضغط 30.09 في
وضوح الرؤية 5.0 أميال
سحابات Few 2500 ft
نقطة الندى 64 °F
الرطوبة 65%
Rainfall 0.00 في
عمق الثلج Not available.
الأشعة فوق البنفسجية 3 out of 12
Pollen Not available.
جودة الهواء Not available.
Flu Activity Not available.
METAR HLLM 300650Z 08008KT 8000 FEW025 25/18 Q1019

More Conditions Fewer Conditions

10-Day Weather Forecast

×

Almanac

علم الفلك

Jun. 30, 2015 Rise Set
Actual Time
Civil Twilight
Nautical Twilight
Astronomical Twilight
قمر
Length Of Visible Light
طول الیوم
Tomorrow will be .
, % of the Moon is Illuminated

Today's Extremes

Country Highs Country Lows

Community

WunderPhotos

Upload Photos

1,833,976 photos uploaded!

WunderBlogs® & News

Nearby

جودة الهواء

  جودة الهواء AQ Index Pollutant
Not available.

عمق الثلج

Station Depth Elevation

Earthquake Activity

City Distance Mag. Time & Date
Minimum magnitude displayed is 2.5.

Coastal Water Temperatures

مكان درجات الحرارة

Stations

Nearby Weather Stations

Station Location الحرارة رياح باردة نقطة الندى الرطوبة ريح Precip. Elev تحديث Type